Time;durP1;ratioP1;P1;durP2;ratioP2;P2;SDS_P1;SDS_P2;PMS_P1;PMS_P2;Temp;Humidity;BMP_temperature;BMP_pressure;BME280_temperature;BME280_humidity;BME280_pressure;Samples;Min_cycle;Max_cycle;Signal;HPM_P1;HPM_P2
2021/08/30 00:00:01;;;;;;;8.63;1.92;;;;;;;;;;5025924;28;20040;-84
2021/08/30 00:02:29;;;;;;;9.40;2.78;;;;;;;;;;5031312;28;20131;-85
2021/08/30 00:04:56;;;;;;;10.40;3.28;;;;;;;;;;5024773;28;23508;-85
2021/08/30 00:07:22;;;;;;;9.18;3.20;;;;;;;;;;5029586;28;20029;-84
2021/08/30 00:09:50;;;;;;;8.45;2.50;;;;;;;;;;5027394;28;20485;-84
2021/08/30 00:12:16;;;;;;;9.27;2.13;;;;;;;;;;5031019;28;20070;-84
2021/08/30 00:14:43;;;;;;;8.68;2.40;;;;;;;;;;5025292;28;20028;-84
2021/08/30 00:17:11;;;;;;;8.48;2.10;;;;;;;;;;5030682;28;20114;-84
2021/08/30 00:19:38;;;;;;;8.68;2.45;;;;;;;;;;5024012;28;20035;-83
2021/08/30 00:22:06;;;;;;;7.68;1.90;;;;;;;;;;5030806;28;20204;-83
2021/08/30 00:24:32;;;;;;;7.20;2.72;;;;;;;;;;5026696;28;20033;-84
2021/08/30 00:26:59;;;;;;;9.20;2.70;;;;;;;;;;5025062;28;20033;-83
2021/08/30 00:29:26;;;;;;;11.20;3.97;;;;;;;;;;5029632;28;20145;-84
2021/08/30 00:31:56;;;;;;;11.18;3.35;;;;;;;;;;5024248;28;20022;-84
2021/08/30 00:34:23;;;;;;;8.93;2.50;;;;;;;;;;5028846;28;20086;-83
2021/08/30 00:36:50;;;;;;;8.27;2.45;;;;;;;;;;5022675;28;20033;-83
2021/08/30 00:39:22;;;;;;;9.43;2.72;;;;;;;;;;5029076;28;20043;-84
2021/08/30 00:41:56;;;;;;;9.18;2.50;;;;;;;;;;5025476;28;20079;-84
2021/08/30 00:44:22;;;;;;;9.40;2.20;;;;;;;;;;5027918;28;20044;-83
2021/08/30 00:46:48;;;;;;;8.18;2.30;;;;;;;;;;5019333;28;20132;-83
2021/08/30 00:49:15;;;;;;;8.50;2.30;;;;;;;;;;5026412;28;20033;-84
2021/08/30 00:51:43;;;;;;;7.68;2.00;;;;;;;;;;5021965;28;20028;-83
2021/08/30 00:54:10;;;;;;;11.93;2.40;;;;;;;;;;5024300;28;20037;-83
2021/08/30 00:56:39;;;;;;;7.55;2.13;;;;;;;;;;5021840;28;20041;-83
2021/08/30 00:59:05;;;;;;;9.70;2.30;;;;;;;;;;5026376;28;20857;-84
2021/08/30 01:01:31;;;;;;;8.82;2.55;;;;;;;;;;5024170;28;20037;-84
2021/08/30 01:04:00;;;;;;;9.90;2.05;;;;;;;;;;5020475;28;20337;-83
2021/08/30 01:06:27;;;;;;;10.88;1.83;;;;;;;;;;5025796;28;20784;-83
2021/08/30 01:08:59;;;;;;;6.82;1.75;;;;;;;;;;5018650;28;20056;-85
2021/08/30 01:11:37;;;;;;;10.15;2.28;;;;;;;;;;5030262;28;20020;-85
2021/08/30 01:14:05;;;;;;;7.25;1.70;;;;;;;;;;5025025;28;20123;-83
2021/08/30 01:16:31;;;;;;;6.85;1.83;;;;;;;;;;5024446;28;21052;-83
2021/08/30 01:19:19;;;;;;;8.93;2.13;;;;;;;;;;5021673;28;20048;-83
2021/08/30 01:21:46;;;;;;;8.75;1.92;;;;;;;;;;4980774;28;20037;-83
2021/08/30 01:24:15;;;;;;;6.22;1.88;;;;;;;;;;4986442;28;20045;-83
2021/08/30 01:26:43;;;;;;;8.63;2.10;;;;;;;;;;5000920;28;20729;-84
2021/08/30 01:29:28;;;;;;;8.27;2.00;;;;;;;;;;4984810;28;20112;-83
2021/08/30 01:31:55;;;;;;;8.07;2.10;;;;;;;;;;4996225;28;20067;-83
2021/08/30 01:34:24;;;;;;;7.97;1.80;;;;;;;;;;5004618;28;20038;-83
2021/08/30 01:36:53;;;;;;;11.43;2.38;;;;;;;;;;4968505;28;20068;-83
2021/08/30 01:39:20;;;;;;;9.85;2.42;;;;;;;;;;4985720;28;20034;-83
2021/08/30 01:41:49;;;;;;;10.18;2.05;;;;;;;;;;5000804;28;20417;-83
2021/08/30 01:44:16;;;;;;;8.20;1.80;;;;;;;;;;5000538;28;20151;-83
2021/08/30 01:46:43;;;;;;;8.13;2.50;;;;;;;;;;4986104;28;20029;-83
2021/08/30 01:49:10;;;;;;;9.07;2.13;;;;;;;;;;4986037;28;20022;-84
2021/08/30 01:51:38;;;;;;;7.78;2.10;;;;;;;;;;5004491;28;20037;-82
2021/08/30 01:54:04;;;;;;;11.30;2.55;;;;;;;;;;4985784;28;20034;-83
2021/08/30 01:56:32;;;;;;;8.38;2.33;;;;;;;;;;4992026;28;20942;-83
2021/08/30 02:01:45;;;;;;;7.30;2.10;;;;;;;;;;4998295;28;20611;-84
2021/08/30 02:04:13;;;;;;;10.27;2.50;;;;;;;;;;5012428;28;20025;-82
2021/08/30 02:06:40;;;;;;;7.18;1.60;;;;;;;;;;5051490;28;20053;-83
2021/08/30 02:09:07;;;;;;;9.10;1.83;;;;;;;;;;5045176;28;20017;-84
2021/08/30 02:11:35;;;;;;;7.63;2.00;;;;;;;;;;5040233;28;20025;-83
2021/08/30 02:14:07;;;;;;;9.60;2.50;;;;;;;;;;5023722;28;20064;-83
2021/08/30 02:16:33;;;;;;;11.25;2.15;;;;;;;;;;5025235;28;20061;-84
2021/08/30 02:19:12;;;;;;;8.05;2.20;;;;;;;;;;5020860;28;20095;-84
2021/08/30 02:21:41;;;;;;;7.10;1.75;;;;;;;;;;5020805;28;20029;-82
2021/08/30 02:24:08;;;;;;;10.60;2.50;;;;;;;;;;5011150;28;20048;-83
2021/08/30 02:26:39;;;;;;;7.97;2.10;;;;;;;;;;5026727;28;20114;-84
2021/08/30 02:29:08;;;;;;;8.15;2.10;;;;;;;;;;5025815;28;20149;-83
2021/08/30 02:31:36;;;;;;;6.68;1.77;;;;;;;;;;5026113;28;20020;-84
2021/08/30 02:34:05;;;;;;;9.73;2.25;;;;;;;;;;5029911;28;20028;-83
2021/08/30 02:36:32;;;;;;;7.35;2.00;;;;;;;;;;5023451;28;20032;-83
2021/08/30 02:39:00;;;;;;;7.95;2.38;;;;;;;;;;5026461;28;20046;-84
2021/08/30 02:41:27;;;;;;;9.32;2.20;;;;;;;;;;5026926;28;20029;-83
2021/08/30 02:43:53;;;;;;;7.85;1.92;;;;;;;;;;5028950;28;20044;-84
2021/08/30 02:46:20;;;;;;;5.68;1.80;;;;;;;;;;5044622;28;20097;-85
2021/08/30 02:48:48;;;;;;;7.40;1.80;;;;;;;;;;5027392;28;20045;-82
2021/08/30 02:51:16;;;;;;;8.85;1.83;;;;;;;;;;5027834;28;20499;-84
2021/08/30 02:53:46;;;;;;;7.22;1.80;;;;;;;;;;5022912;28;20061;-85
2021/08/30 02:56:12;;;;;;;7.82;2.15;;;;;;;;;;5015605;28;20041;-84
2021/08/30 02:58:40;;;;;;;7.95;1.95;;;;;;;;;;5022227;28;20044;-84
2021/08/30 03:01:07;;;;;;;10.23;1.98;;;;;;;;;;5032582;28;20610;-84
2021/08/30 03:03:36;;;;;;;9.43;2.00;;;;;;;;;;5026983;28;20041;-84
2021/08/30 03:06:05;;;;;;;8.23;2.00;;;;;;;;;;5030139;28;20030;-84
2021/08/30 03:08:32;;;;;;;7.10;1.98;;;;;;;;;;5026477;28;20385;-83
2021/08/30 03:11:01;;;;;;;6.07;1.83;;;;;;;;;;5041834;28;20055;-84
2021/08/30 03:13:28;;;;;;;6.53;1.60;;;;;;;;;;5051663;28;20131;-84
2021/08/30 03:15:56;;;;;;;7.50;2.03;;;;;;;;;;5040948;28;20041;-84
2021/08/30 03:18:22;;;;;;;7.38;1.75;;;;;;;;;;5024975;28;20029;-83
2021/08/30 03:20:51;;;;;;;7.72;1.88;;;;;;;;;;5019391;28;20025;-84
2021/08/30 03:23:18;;;;;;;8.00;2.10;;;;;;;;;;5035271;28;20021;-84
2021/08/30 03:25:45;;;;;;;6.60;1.45;;;;;;;;;;5026061;28;20029;-84
2021/08/30 03:28:11;;;;;;;9.02;1.95;;;;;;;;;;5001037;28;20103;-84
2021/08/30 03:30:39;;;;;;;7.72;1.83;;;;;;;;;;5024162;28;20059;-84
2021/08/30 03:33:07;;;;;;;8.23;1.80;;;;;;;;;;5032802;28;20032;-85
2021/08/30 03:35:35;;;;;;;9.55;2.03;;;;;;;;;;5012654;28;20041;-84
2021/08/30 03:38:03;;;;;;;8.02;2.10;;;;;;;;;;4993547;28;20075;-84
2021/08/30 03:40:31;;;;;;;9.13;2.17;;;;;;;;;;5026638;28;20171;-84
2021/08/30 03:42:59;;;;;;;8.07;2.10;;;;;;;;;;5026291;28;20052;-86
2021/08/30 03:45:27;;;;;;;7.15;2.00;;;;;;;;;;5012579;28;20052;-83
2021/08/30 03:47:56;;;;;;;8.48;1.90;;;;;;;;;;5009333;28;20487;-83
2021/08/30 03:50:22;;;;;;;9.70;2.13;;;;;;;;;;5031642;28;20201;-84
2021/08/30 03:52:49;;;;;;;8.23;1.70;;;;;;;;;;5023732;28;20670;-84
2021/08/30 03:55:17;;;;;;;8.98;1.98;;;;;;;;;;5031167;28;20611;-85
2021/08/30 03:57:45;;;;;;;10.70;2.10;;;;;;;;;;5023679;28;20529;-85
2021/08/30 04:00:12;;;;;;;9.00;2.33;;;;;;;;;;5032647;28;20026;-85
2021/08/30 04:02:41;;;;;;;7.57;1.80;;;;;;;;;;5023143;28;20668;-84
2021/08/30 04:05:09;;;;;;;10.10;2.40;;;;;;;;;;5031177;28;20033;-84
2021/08/30 04:07:36;;;;;;;11.30;2.25;;;;;;;;;;5007803;28;20037;-84
2021/08/30 04:10:02;;;;;;;10.73;2.28;;;;;;;;;;5023708;28;20033;-84
2021/08/30 04:12:31;;;;;;;7.63;2.28;;;;;;;;;;5025336;28;20037;-84
2021/08/30 04:14:58;;;;;;;7.53;1.70;;;;;;;;;;5020297;28;20041;-83
2021/08/30 04:17:26;;;;;;;9.07;2.22;;;;;;;;;;5056293;28;20037;-84
2021/08/30 04:19:52;;;;;;;6.90;2.00;;;;;;;;;;5036097;28;20040;-84
2021/08/30 04:22:20;;;;;;;9.85;2.00;;;;;;;;;;5035584;28;20683;-83
2021/08/30 04:24:46;;;;;;;7.63;2.00;;;;;;;;;;5023577;28;20645;-83
2021/08/30 04:27:14;;;;;;;5.85;1.60;;;;;;;;;;5029075;28;20032;-83
2021/08/30 04:29:40;;;;;;;10.52;1.90;;;;;;;;;;5021488;28;20032;-83
2021/08/30 04:32:08;;;;;;;6.60;1.85;;;;;;;;;;5024763;28;20024;-82
2021/08/30 04:34:38;;;;;;;8.57;2.20;;;;;;;;;;5029679;28;20032;-83
2021/08/30 04:37:04;;;;;;;8.05;2.00;;;;;;;;;;5043274;28;20041;-83
2021/08/30 04:39:31;;;;;;;7.68;2.03;;;;;;;;;;5028733;28;20688;-83
2021/08/30 04:42:04;;;;;;;7.20;2.13;;;;;;;;;;5021035;28;20024;-84
2021/08/30 04:44:30;;;;;;;7.15;1.88;;;;;;;;;;5027579;28;20138;-84
2021/08/30 04:46:56;;;;;;;10.55;1.77;;;;;;;;;;5038051;28;20118;-84
2021/08/30 04:49:23;;;;;;;9.80;2.00;;;;;;;;;;5045321;28;20092;-84
2021/08/30 04:51:51;;;;;;;7.30;1.70;;;;;;;;;;5041444;28;20033;-84
2021/08/30 04:54:21;;;;;;;8.50;2.13;;;;;;;;;;5032660;28;20032;-84
2021/08/30 04:56:47;;;;;;;9.30;1.90;;;;;;;;;;5029414;28;20430;-84
2021/08/30 04:59:15;;;;;;;10.40;2.10;;;;;;;;;;5015534;28;20137;-84
2021/08/30 05:01:43;;;;;;;7.80;2.00;;;;;;;;;;5010328;28;20110;-85
2021/08/30 05:04:12;;;;;;;6.35;1.80;;;;;;;;;;5032649;28;20073;-85
2021/08/30 05:06:38;;;;;;;8.02;2.10;;;;;;;;;;5025763;28;20049;-85
2021/08/30 05:09:04;;;;;;;7.00;2.00;;;;;;;;;;5027426;28;20090;-84
2021/08/30 05:11:31;;;;;;;8.43;1.90;;;;;;;;;;5026310;28;20060;-84
2021/08/30 05:14:02;;;;;;;9.93;2.55;;;;;;;;;;5022006;28;20049;-83
2021/08/30 05:16:28;;;;;;;12.40;2.80;;;;;;;;;;5026300;28;20028;-84
2021/08/30 05:18:55;;;;;;;8.75;2.10;;;;;;;;;;5023832;28;20083;-85
2021/08/30 05:21:21;;;;;;;10.98;2.95;;;;;;;;;;5020261;28;20777;-84
2021/08/30 05:23:47;;;;;;;12.55;3.03;;;;;;;;;;5019828;28;20108;-83
2021/08/30 05:26:13;;;;;;;9.77;2.83;;;;;;;;;;5020157;28;20037;-82
2021/08/30 05:28:40;;;;;;;13.43;2.53;;;;;;;;;;5003403;28;20036;-83
2021/08/30 05:31:07;;;;;;;10.63;2.50;;;;;;;;;;5024787;28;20851;-83
2021/08/30 05:33:36;;;;;;;7.93;2.47;;;;;;;;;;5022544;28;20231;-84
2021/08/30 05:36:04;;;;;;;8.65;2.03;;;;;;;;;;5025420;28;20063;-83
2021/08/30 05:38:37;;;;;;;7.63;2.03;;;;;;;;;;5023999;28;20388;-82
2021/08/30 05:41:04;;;;;;;9.68;2.60;;;;;;;;;;5024516;28;20037;-83
2021/08/30 05:43:32;;;;;;;8.90;2.35;;;;;;;;;;5019847;28;21258;-83
2021/08/30 05:45:59;;;;;;;7.03;2.13;;;;;;;;;;5020638;28;20029;-84
2021/08/30 05:48:26;;;;;;;9.63;2.22;;;;;;;;;;5022492;28;20032;-82
2021/08/30 05:50:55;;;;;;;10.90;2.35;;;;;;;;;;5020932;28;20044;-85
2021/08/30 05:53:22;;;;;;;9.25;2.40;;;;;;;;;;5040746;28;20116;-83
2021/08/30 05:55:49;;;;;;;9.90;2.38;;;;;;;;;;5021266;28;20033;-82
2021/08/30 05:58:16;;;;;;;9.43;2.42;;;;;;;;;;5035522;28;20029;-84
2021/08/30 06:00:42;;;;;;;10.50;2.50;;;;;;;;;;5033532;28;20040;-82
2021/08/30 06:03:11;;;;;;;5.97;1.65;;;;;;;;;;5035405;28;20151;-83
2021/08/30 06:05:42;;;;;;;8.20;2.45;;;;;;;;;;5022832;28;20091;-83
2021/08/30 06:08:08;;;;;;;9.18;2.20;;;;;;;;;;5029744;28;20758;-84
2021/08/30 06:10:34;;;;;;;9.88;2.47;;;;;;;;;;5022999;28;20021;-84
2021/08/30 06:13:03;;;;;;;14.13;2.47;;;;;;;;;;5022454;28;20116;-84
2021/08/30 06:15:29;;;;;;;8.38;2.00;;;;;;;;;;5023888;28;20071;-84
2021/08/30 06:17:56;;;;;;;7.10;1.73;;;;;;;;;;5018390;28;20132;-83
2021/08/30 06:20:24;;;;;;;9.98;2.10;;;;;;;;;;5024243;28;20098;-83
2021/08/30 06:22:50;;;;;;;11.35;2.50;;;;;;;;;;5021931;28;20401;-83
2021/08/30 06:25:17;;;;;;;12.65;2.92;;;;;;;;;;5023899;28;20072;-84
2021/08/30 06:27:43;;;;;;;11.57;2.50;;;;;;;;;;5019794;28;20017;-84
2021/08/30 06:30:11;;;;;;;13.45;2.55;;;;;;;;;;5028726;28;20365;-84
2021/08/30 06:32:37;;;;;;;9.40;2.50;;;;;;;;;;5019794;28;20033;-84
2021/08/30 06:35:06;;;;;;;8.52;1.90;;;;;;;;;;5026293;28;20040;-84
2021/08/30 06:37:32;;;;;;;13.93;2.58;;;;;;;;;;5037673;28;20029;-84
2021/08/30 06:40:00;;;;;;;8.68;2.50;;;;;;;;;;5021650;28;20133;-84
2021/08/30 06:42:26;;;;;;;12.23;2.35;;;;;;;;;;5025933;28;20059;-83
2021/08/30 06:44:53;;;;;;;13.05;2.33;;;;;;;;;;5024444;28;20071;-84
2021/08/30 06:47:20;;;;;;;8.20;2.13;;;;;;;;;;5027836;28;20021;-84
2021/08/30 06:49:46;;;;;;;10.65;2.00;;;;;;;;;;5027449;28;20309;-84
2021/08/30 06:52:14;;;;;;;8.93;1.88;;;;;;;;;;5037999;28;20464;-85
2021/08/30 06:54:41;;;;;;;9.50;2.13;;;;;;;;;;5036145;28;20025;-85
2021/08/30 06:57:09;;;;;;;8.32;1.80;;;;;;;;;;5034741;28;20025;-84
2021/08/30 06:59:35;;;;;;;10.77;2.60;;;;;;;;;;5034650;28;20079;-84
2021/08/30 07:02:01;;;;;;;9.18;2.00;;;;;;;;;;5027023;28;20062;-84
2021/08/30 07:04:28;;;;;;;7.05;2.03;;;;;;;;;;5027042;28;20056;-83
2021/08/30 07:06:54;;;;;;;10.10;2.05;;;;;;;;;;5025521;28;20082;-84
2021/08/30 07:09:20;;;;;;;10.38;2.38;;;;;;;;;;5030169;28;20948;-86
2021/08/30 07:11:48;;;;;;;10.50;2.13;;;;;;;;;;5023721;28;20028;-84
2021/08/30 07:14:14;;;;;;;8.70;2.03;;;;;;;;;;5040569;28;20025;-84
2021/08/30 07:16:40;;;;;;;8.77;3.28;;;;;;;;;;5024977;28;20945;-86
2021/08/30 07:19:06;;;;;;;10.88;3.00;;;;;;;;;;5024290;28;20267;-85
2021/08/30 07:21:35;;;;;;;15.95;3.70;;;;;;;;;;5026164;28;20028;-85
2021/08/30 07:24:01;;;;;;;11.15;3.08;;;;;;;;;;5021727;28;20025;-85
2021/08/30 07:26:28;;;;;;;9.90;2.75;;;;;;;;;;5023094;28;20031;-85
2021/08/30 07:28:55;;;;;;;11.85;2.75;;;;;;;;;;5023220;28;20028;-85
2021/08/30 07:31:22;;;;;;;11.30;2.67;;;;;;;;;;5029885;28;20086;-84
2021/08/30 07:33:48;;;;;;;10.00;2.00;;;;;;;;;;5024925;28;20151;-86
2021/08/30 07:36:16;;;;;;;9.80;2.55;;;;;;;;;;5038834;28;20040;-87
2021/08/30 07:38:42;;;;;;;10.95;2.40;;;;;;;;;;5030540;28;20025;-85
2021/08/30 07:41:09;;;;;;;10.27;2.40;;;;;;;;;;5032291;28;20091;-84
2021/08/30 07:43:36;;;;;;;14.20;2.65;;;;;;;;;;5032905;28;20065;-85
2021/08/30 07:46:04;;;;;;;13.55;3.20;;;;;;;;;;5026692;28;20033;-85
2021/08/30 07:48:31;;;;;;;11.18;2.55;;;;;;;;;;5028373;28;20096;-85
2021/08/30 07:51:00;;;;;;;11.65;2.67;;;;;;;;;;5026007;28;20481;-85
2021/08/30 07:53:30;;;;;;;11.52;2.42;;;;;;;;;;5030275;28;20021;-84
2021/08/30 07:55:57;;;;;;;14.13;2.38;;;;;;;;;;5026640;28;20040;-84
2021/08/30 07:58:24;;;;;;;9.10;2.25;;;;;;;;;;5035192;28;20028;-84
2021/08/30 08:00:51;;;;;;;12.25;2.22;;;;;;;;;;5038422;28;20416;-85
2021/08/30 08:03:18;;;;;;;8.55;2.15;;;;;;;;;;5044829;28;20017;-86
2021/08/30 08:05:46;;;;;;;7.90;2.10;;;;;;;;;;5055753;28;20071;-85
2021/08/30 08:08:13;;;;;;;10.57;2.50;;;;;;;;;;5055183;28;20043;-84
2021/08/30 08:10:43;;;;;;;9.68;2.17;;;;;;;;;;5025031;28;20060;-85
2021/08/30 08:13:12;;;;;;;11.85;2.20;;;;;;;;;;5045519;28;20044;-86
2021/08/30 08:15:38;;;;;;;9.90;2.33;;;;;;;;;;5043559;28;20032;-86
2021/08/30 08:18:05;;;;;;;12.05;2.80;;;;;;;;;;5045690;28;20028;-85
2021/08/30 08:20:33;;;;;;;9.57;2.05;;;;;;;;;;5044934;28;20036;-84
2021/08/30 08:23:00;;;;;;;11.35;2.20;;;;;;;;;;5024298;28;20589;-84
2021/08/30 08:25:28;;;;;;;10.77;2.33;;;;;;;;;;5020572;28;20033;-85
2021/08/30 08:27:55;;;;;;;10.75;2.45;;;;;;;;;;5024571;28;20494;-85
2021/08/30 08:30:22;;;;;;;9.27;2.42;;;;;;;;;;5045700;28;20033;-84
2021/08/30 08:32:51;;;;;;;11.50;2.70;;;;;;;;;;5041151;28;20044;-85
2021/08/30 08:35:18;;;;;;;14.80;4.18;;;;;;;;;;5043788;28;20028;-86
2021/08/30 08:37:44;;;;;;;11.02;2.67;;;;;;;;;;5026901;28;20036;-84
2021/08/30 08:40:12;;;;;;;10.32;2.72;;;;;;;;;;5047613;28;20185;-84
2021/08/30 08:42:42;;;;;;;11.18;3.13;;;;;;;;;;5043971;28;22154;-84
2021/08/30 08:45:10;;;;;;;14.25;2.83;;;;;;;;;;5049033;28;20139;-84
2021/08/30 08:47:37;;;;;;;8.82;2.60;;;;;;;;;;5033652;28;20119;-84
2021/08/30 08:50:07;;;;;;;14.60;2.92;;;;;;;;;;5031165;28;20518;-85
2021/08/30 08:52:36;;;;;;;19.02;3.03;;;;;;;;;;5037628;28;20037;-86
2021/08/30 08:55:02;;;;;;;14.63;3.05;;;;;;;;;;5036375;28;20052;-84
2021/08/30 08:57:28;;;;;;;15.18;3.40;;;;;;;;;;5042292;28;20053;-85
2021/08/30 08:59:56;;;;;;;16.65;3.70;;;;;;;;;;5037809;28;20028;-86
2021/08/30 09:02:26;;;;;;;11.88;3.92;;;;;;;;;;5032971;28;20035;-88
2021/08/30 09:04:54;;;;;;;14.75;4.35;;;;;;;;;;5030739;28;20025;-87
2021/08/30 09:07:30;;;;;;;13.50;4.63;;;;;;;;;;5028135;28;20189;-86
2021/08/30 09:10:04;;;;;;;14.07;4.73;;;;;;;;;;5037924;28;20128;-85
2021/08/30 09:12:30;;;;;;;16.52;4.75;;;;;;;;;;5028716;28;20376;-86
2021/08/30 09:14:58;;;;;;;18.08;5.55;;;;;;;;;;5028969;28;20033;-86
2021/08/30 09:17:24;;;;;;;14.82;5.22;;;;;;;;;;5026788;28;20034;-87
2021/08/30 09:19:56;;;;;;;21.92;6.07;;;;;;;;;;5028268;28;20032;-87
2021/08/30 09:22:30;;;;;;;14.15;5.07;;;;;;;;;;5031030;28;20098;-88
2021/08/30 09:25:08;;;;;;;17.60;5.47;;;;;;;;;;5029526;28;20063;-86
2021/08/30 09:27:39;;;;;;;16.75;4.47;;;;;;;;;;5036309;28;20025;-88
2021/08/30 09:30:11;;;;;;;17.98;4.60;;;;;;;;;;5030278;28;20119;-88
2021/08/30 09:32:37;;;;;;;12.68;3.42;;;;;;;;;;5031521;28;20025;-88
2021/08/30 09:35:06;;;;;;;16.85;3.70;;;;;;;;;;5051364;28;20059;-87
2021/08/30 09:37:37;;;;;;;26.67;5.03;;;;;;;;;;5034188;28;20025;-88
2021/08/30 09:40:05;;;;;;;13.35;4.50;;;;;;;;;;5031838;28;20025;-87
2021/08/30 09:42:32;;;;;;;10.90;3.83;;;;;;;;;;5027184;28;20029;-87
2021/08/30 09:45:14;;;;;;;13.00;3.55;;;;;;;;;;5025495;28;20040;-87
2021/08/30 09:47:56;;;;;;;12.27;3.78;;;;;;;;;;5019638;28;20224;-86
2021/08/30 09:50:33;;;;;;;14.13;4.00;;;;;;;;;;5041558;28;20492;-83
2021/08/30 09:53:00;;;;;;;13.52;4.03;;;;;;;;;;5039409;28;20029;-86
2021/08/30 09:55:27;;;;;;;12.02;4.07;;;;;;;;;;5047409;28;20017;-88
2021/08/30 09:57:55;;;;;;;14.80;4.32;;;;;;;;;;5051385;28;20110;-86
2021/08/30 10:00:22;;;;;;;15.63;4.18;;;;;;;;;;5049116;28;20116;-87
2021/08/30 10:02:50;;;;;;;15.77;3.63;;;;;;;;;;5027974;28;20033;-87
2021/08/30 10:05:22;;;;;;;15.35;3.97;;;;;;;;;;5031143;28;20033;-87
2021/08/30 10:07:49;;;;;;;21.80;5.00;;;;;;;;;;5028190;28;20023;-85
2021/08/30 10:10:17;;;;;;;15.93;3.95;;;;;;;;;;5030007;28;20041;-83
2021/08/30 10:12:43;;;;;;;18.65;4.05;;;;;;;;;;5022367;28;20017;-85
2021/08/30 10:15:11;;;;;;;16.20;4.50;;;;;;;;;;5030586;28;20118;-85
2021/08/30 10:17:49;;;;;;;13.02;4.32;;;;;;;;;;5039632;28;20107;-86
2021/08/30 10:20:18;;;;;;;19.83;4.95;;;;;;;;;;5030329;28;20029;-84
2021/08/30 10:22:55;;;;;;;13.80;4.45;;;;;;;;;;5023028;28;20033;-85
2021/08/30 10:25:23;;;;;;;14.57;4.45;;;;;;;;;;5029007;28;20036;-84
2021/08/30 10:28:08;;;;;;;14.07;4.20;;;;;;;;;;5025551;28;20033;-85
2021/08/30 10:30:38;;;;;;;17.08;4.10;;;;;;;;;;5027500;28;20033;-85
2021/08/30 10:33:08;;;;;;;13.98;3.60;;;;;;;;;;5029210;28;20036;-86
2021/08/30 10:35:42;;;;;;;12.95;3.80;;;;;;;;;;5026678;28;20150;-85
2021/08/30 10:38:15;;;;;;;16.13;4.35;;;;;;;;;;5028703;28;20032;-85
2021/08/30 10:40:43;;;;;;;13.20;3.85;;;;;;;;;;5031518;28;20033;-86
2021/08/30 10:43:09;;;;;;;10.15;3.80;;;;;;;;;;5031655;28;20069;-85
2021/08/30 10:45:39;;;;;;;13.57;4.22;;;;;;;;;;5035520;28;20036;-85
2021/08/30 10:48:09;;;;;;;10.57;3.72;;;;;;;;;;5052711;28;20029;-87
2021/08/30 10:50:41;;;;;;;14.95;4.95;;;;;;;;;;5030930;28;20699;-81
2021/08/30 10:53:15;;;;;;;16.73;4.20;;;;;;;;;;5020075;28;20025;-81
2021/08/30 10:55:44;;;;;;;13.23;3.85;;;;;;;;;;5019988;28;20082;-80
2021/08/30 10:58:12;;;;;;;11.77;4.00;;;;;;;;;;5021057;28;20091;-83
2021/08/30 11:00:40;;;;;;;11.35;3.65;;;;;;;;;;5026316;28;20381;-86
2021/08/30 11:03:07;;;;;;;12.73;3.85;;;;;;;;;;5030243;28;20033;-88
2021/08/30 11:05:36;;;;;;;12.30;3.95;;;;;;;;;;5034262;28;20037;-86
2021/08/30 11:08:04;;;;;;;10.40;4.10;;;;;;;;;;5030578;28;20466;-87
2021/08/30 11:10:33;;;;;;;14.32;4.63;;;;;;;;;;5028446;28;20473;-88
2021/08/30 11:13:00;;;;;;;13.93;5.00;;;;;;;;;;5029066;28;20417;-86
2021/08/30 11:15:31;;;;;;;13.63;4.63;;;;;;;;;;5027475;28;20021;-86
2021/08/30 11:17:59;;;;;;;13.80;4.60;;;;;;;;;;5021358;28;20798;-86
2021/08/30 11:20:26;;;;;;;13.55;4.93;;;;;;;;;;5036526;28;20039;-87
2021/08/30 11:22:53;;;;;;;14.20;4.72;;;;;;;;;;5030230;28;20037;-88
2021/08/30 11:25:20;;;;;;;15.65;5.75;;;;;;;;;;5027551;28;20040;-87
2021/08/30 11:27:48;;;;;;;17.90;10.73;;;;;;;;;;5031387;28;20364;-87
2021/08/30 11:30:15;;;;;;;19.13;10.88;;;;;;;;;;5032341;28;20025;-86
2021/08/30 11:32:42;;;;;;;18.60;11.02;;;;;;;;;;5027380;28;20067;-89
2021/08/30 11:35:10;;;;;;;23.63;15.02;;;;;;;;;;5030438;28;20025;-85
2021/08/30 11:37:37;;;;;;;16.30;6.28;;;;;;;;;;5040254;28;20047;-88
2021/08/30 11:40:06;;;;;;;23.63;15.05;;;;;;;;;;5036579;28;20033;-85
2021/08/30 11:42:33;;;;;;;14.18;4.93;;;;;;;;;;5032811;28;20438;-84
2021/08/30 11:45:02;;;;;;;9.15;3.75;;;;;;;;;;5030018;28;20044;-83
2021/08/30 11:47:31;;;;;;;11.77;5.25;;;;;;;;;;5027446;28;20135;-82
2021/08/30 11:50:00;;;;;;;12.82;5.82;;;;;;;;;;5025949;28;20048;-87
2021/08/30 11:52:29;;;;;;;16.60;9.93;;;;;;;;;;5068969;28;20040;-87
2021/08/30 11:55:02;;;;;;;27.17;19.17;;;;;;;;;;5049898;28;20043;-88
2021/08/30 11:57:48;;;;;;;17.23;10.75;;;;;;;;;;5048955;28;20171;-86
2021/08/30 12:00:24;;;;;;;12.23;4.85;;;;;;;;;;5050257;28;20028;-87
2021/08/30 12:02:51;;;;;;;14.70;5.05;;;;;;;;;;5062750;28;20070;-84
2021/08/30 12:05:18;;;;;;;18.95;13.15;;;;;;;;;;5076007;22;20516;-83
2021/08/30 12:07:44;;;;;;;9.32;2.97;;;;;;;;;;5042968;28;20050;-81
2021/08/30 12:10:12;;;;;;;7.72;2.08;;;;;;;;;;5046811;28;20044;-83
2021/08/30 12:15:25;;;;;;;6.00;0.90;;;;;;;;;;5047929;28;20047;-83
2021/08/30 12:17:56;;;;;;;8.30;1.15;;;;;;;;;;5042301;28;20566;-85
2021/08/30 12:20:24;;;;;;;14.43;1.13;;;;;;;;;;5043104;28;20101;-84
2021/08/30 12:22:52;;;;;;;8.73;1.50;;;;;;;;;;5043390;28;20483;-84
2021/08/30 12:25:20;;;;;;;4.07;1.00;;;;;;;;;;5044506;28;20081;-84
2021/08/30 12:27:47;;;;;;;6.22;0.85;;;;;;;;;;5042187;28;20031;-82
2021/08/30 12:30:19;;;;;;;2.90;0.95;;;;;;;;;;5041959;28;20036;-83
2021/08/30 12:32:51;;;;;;;3.08;0.68;;;;;;;;;;5038205;28;20025;-82
2021/08/30 12:35:20;;;;;;;4.68;0.93;;;;;;;;;;5046671;28;20112;-84
2021/08/30 12:37:50;;;;;;;8.30;1.08;;;;;;;;;;5038376;28;20028;-82
2021/08/30 12:40:17;;;;;;;2.72;0.60;;;;;;;;;;5047491;28;20028;-83
2021/08/30 12:42:43;;;;;;;3.33;0.85;;;;;;;;;;5039943;28;20035;-82
2021/08/30 12:45:10;;;;;;;1.92;0.60;;;;;;;;;;5048291;28;20024;-83
2021/08/30 12:47:37;;;;;;;4.30;1.20;;;;;;;;;;5045409;28;20124;-80
2021/08/30 12:50:03;;;;;;;4.00;1.00;;;;;;;;;;5049884;28;20025;-84
2021/08/30 12:52:29;;;;;;;3.25;1.00;;;;;;;;;;5047785;28;20028;-82
2021/08/30 12:54:56;;;;;;;3.00;0.90;;;;;;;;;;5046694;28;20035;-83
2021/08/30 12:57:22;;;;;;;3.38;1.05;;;;;;;;;;5042239;28;20128;-81
2021/08/30 12:59:48;;;;;;;5.68;1.30;;;;;;;;;;5041416;28;20041;-83
2021/08/30 13:02:14;;;;;;;3.10;1.02;;;;;;;;;;5040622;28;20638;-82
2021/08/30 13:04:40;;;;;;;3.58;1.13;;;;;;;;;;5040236;28;20032;-82
2021/08/30 13:07:07;;;;;;;3.78;1.10;;;;;;;;;;5044791;28;20570;-81
2021/08/30 13:09:33;;;;;;;5.47;1.30;;;;;;;;;;5045204;28;20032;-82
2021/08/30 13:11:59;;;;;;;5.18;1.20;;;;;;;;;;5038103;28;20028;-80
2021/08/30 13:14:25;;;;;;;4.82;1.40;;;;;;;;;;5042657;28;20592;-81
2021/08/30 13:16:51;;;;;;;6.07;1.70;;;;;;;;;;5042799;28;20040;-81
2021/08/30 13:19:18;;;;;;;5.57;1.80;;;;;;;;;;5047055;28;20043;-81
2021/08/30 13:21:45;;;;;;;6.13;1.77;;;;;;;;;;5044955;28;20036;-80
2021/08/30 13:24:11;;;;;;;4.82;1.55;;;;;;;;;;5040070;28;20439;-82
2021/08/30 13:26:37;;;;;;;5.47;1.60;;;;;;;;;;5042148;28;20020;-81
2021/08/30 13:29:03;;;;;;;7.70;1.73;;;;;;;;;;5041599;28;20557;-81
2021/08/30 13:31:30;;;;;;;5.30;1.77;;;;;;;;;;5044426;28;20040;-81
2021/08/30 13:33:56;;;;;;;4.25;1.48;;;;;;;;;;5040912;28;20036;-82
2021/08/30 13:36:23;;;;;;;6.43;1.75;;;;;;;;;;5042250;28;20036;-83
2021/08/30 13:38:49;;;;;;;10.02;2.08;;;;;;;;;;5043035;28;20029;-81
2021/08/30 13:41:15;;;;;;;5.45;1.85;;;;;;;;;;5043589;28;20028;-81
2021/08/30 13:43:41;;;;;;;4.95;1.73;;;;;;;;;;5048264;28;20021;-81
2021/08/30 13:46:08;;;;;;;5.93;1.85;;;;;;;;;;5058385;28;20029;-81
2021/08/30 13:48:35;;;;;;;6.55;1.90;;;;;;;;;;5051683;28;20057;-80
2021/08/30 13:51:02;;;;;;;7.70;1.95;;;;;;;;;;5044605;28;20555;-82
2021/08/30 13:53:28;;;;;;;6.97;1.85;;;;;;;;;;5044218;28;20024;-82
2021/08/30 13:55:55;;;;;;;5.78;1.90;;;;;;;;;;5039478;28;20065;-81
2021/08/30 13:58:22;;;;;;;6.47;1.83;;;;;;;;;;5045219;28;20686;-82
2021/08/30 14:00:48;;;;;;;6.65;1.95;;;;;;;;;;5044515;28;20028;-81
2021/08/30 14:03:14;;;;;;;5.70;1.90;;;;;;;;;;5045975;28;20039;-81
2021/08/30 14:05:40;;;;;;;7.25;2.22;;;;;;;;;;5042844;28;20044;-80
2021/08/30 14:08:08;;;;;;;7.95;2.00;;;;;;;;;;5037879;28;20609;-82
2021/08/30 14:10:34;;;;;;;5.88;1.83;;;;;;;;;;5040193;28;20067;-82
2021/08/30 14:13:00;;;;;;;6.45;2.10;;;;;;;;;;5040847;28;20052;-82
2021/08/30 14:15:27;;;;;;;6.13;1.85;;;;;;;;;;5042947;28;20037;-82
2021/08/30 14:17:53;;;;;;;6.22;2.00;;;;;;;;;;5033488;28;20078;-83
2021/08/30 14:20:19;;;;;;;5.75;1.83;;;;;;;;;;5045836;28;20048;-81
2021/08/30 14:22:47;;;;;;;6.43;1.80;;;;;;;;;;5041423;28;20024;-81
2021/08/30 14:25:14;;;;;;;7.50;2.22;;;;;;;;;;5046149;28;20031;-80
2021/08/30 14:27:41;;;;;;;7.43;2.40;;;;;;;;;;5041607;28;20118;-82
2021/08/30 14:30:08;;;;;;;10.05;2.65;;;;;;;;;;5046102;28;20093;-80
2021/08/30 14:32:34;;;;;;;7.47;2.15;;;;;;;;;;5045072;28;20046;-82
2021/08/30 14:35:00;;;;;;;7.57;2.50;;;;;;;;;;5036361;28;20079;-81
2021/08/30 14:37:27;;;;;;;6.68;2.05;;;;;;;;;;5055652;28;20090;-82
2021/08/30 14:39:53;;;;;;;8.25;2.78;;;;;;;;;;5055585;28;20021;-82
2021/08/30 14:42:19;;;;;;;6.72;2.22;;;;;;;;;;5053056;28;20057;-81
2021/08/30 14:44:45;;;;;;;8.07;2.30;;;;;;;;;;5048465;28;20028;-83
2021/08/30 14:47:12;;;;;;;7.50;2.42;;;;;;;;;;5049786;28;20021;-82